Time;durP1;ratioP1;P1;durP2;ratioP2;P2;SDS_P1;SDS_P2;PMS_P1;PMS_P2;Temp;Humidity;BMP_temperature;BMP_pressure;BME280_temperature;BME280_humidity;BME280_pressure;Samples;Min_cycle;Max_cycle;Signal;HPM_P1;HPM_P2
2022/09/07 00:00:34;;;;;;;;;;;;;;;;;;5089707;28;19920;-70
2022/09/07 00:02:59;;;;;;;;;;;;;;;;;;5084048;28;20368;-70
2022/09/07 00:05:25;;;;;;;;;;;;;;;;;;5088388;28;19925;-70
2022/09/07 00:07:50;;;;;;;;;;;;;;;;;;5082018;28;19920;-71
2022/09/07 00:10:15;;;;;;;;;;;;;;;;;;5072271;28;20284;-70
2022/09/07 00:12:40;;;;;;;;;;;;;;;;;;5072998;28;19908;-70
2022/09/07 00:15:08;;;;;;;;;;;;;;;;;;5065021;28;20312;-69
2022/09/07 00:17:33;;;;;;;;;;;;;;;;;;5089210;28;19919;-69
2022/09/07 00:19:58;;;;;;;;;;;;;;;;;;5080304;28;20002;-70
2022/09/07 00:22:23;;;;;;;;;;;;;;;;;;5092278;28;19919;-69
2022/09/07 00:24:49;;;;;;;;;;;;;;;;;;5082681;28;19969;-69
2022/09/07 00:27:14;;;;;;;;;;;;;;;;;;5092902;28;19954;-70
2022/09/07 00:29:39;;;;;;;;;;;;;;;;;;5065577;28;19927;-70
2022/09/07 00:32:04;;;;;;;;;;;;;;;;;;5091156;28;19908;-70
2022/09/07 00:34:29;;;;;;;;;;;;;;;;;;5083380;28;19916;-70
2022/09/07 00:36:54;;;;;;;;;;;;;;;;;;5090939;28;19912;-69
2022/09/07 00:39:20;;;;;;;;;;;;;;;;;;5082201;28;20175;-70
2022/09/07 00:41:45;;;;;;;;;;;;;;;;;;5072159;28;19909;-69
2022/09/07 00:44:10;;;;;;;;;;;;;;;;;;5072210;28;19973;-70
2022/09/07 00:46:35;;;;;;;;;;;;;;;;;;5082794;28;19916;-70
2022/09/07 00:49:00;;;;;;;;;;;;;;;;;;5100375;28;19924;-69
2022/09/07 00:51:26;;;;;;;;;;;;;;;;;;5063296;28;19965;-70
2022/09/07 00:53:53;;;;;;;;;;;;;;;;;;5072076;28;19916;-68
2022/09/07 00:56:18;;;;;;;;;;;;;;;;;;5071991;28;20288;-70
2022/09/07 00:58:43;;;;;;;;;;;;;;;;;;5084579;28;19920;-70
2022/09/07 01:01:08;;;;;;;;;;;;;;;;;;5054551;28;20041;-71
2022/09/07 01:03:34;;;;;;;;;;;;;;;;;;5066512;28;19908;-70
2022/09/07 01:05:59;;;;;;;;;;;;;;;;;;5074159;28;20416;-70
2022/09/07 01:08:24;;;;;;;;;;;;;;;;;;5084471;28;20058;-70
2022/09/07 01:10:49;;;;;;;;;;;;;;;;;;5059355;28;19919;-70
2022/09/07 01:13:14;;;;;;;;;;;;;;;;;;5088886;28;20273;-70
2022/09/07 01:15:39;;;;;;;;;;;;;;;;;;5094240;28;19924;-70
2022/09/07 01:18:04;;;;;;;;;;;;;;;;;;5092414;28;19920;-70
2022/09/07 01:20:30;;;;;;;;;;;;;;;;;;5066425;28;20364;-69
2022/09/07 01:22:55;;;;;;;;;;;;;;;;;;5054773;28;20011;-70
2022/09/07 01:25:20;;;;;;;;;;;;;;;;;;5107366;28;19911;-70
2022/09/07 01:27:45;;;;;;;;;;;;;;;;;;5077475;28;19959;-70
2022/09/07 01:30:10;;;;;;;;;;;;;;;;;;5084803;28;19916;-70
2022/09/07 01:32:36;;;;;;;;;;;;;;;;;;5084906;28;19918;-70
2022/09/07 01:35:01;;;;;;;;;;;;;;;;;;5092797;28;19926;-70
2022/09/07 01:37:26;;;;;;;;;;;;;;;;;;5084274;28;20353;-70
2022/09/07 01:39:51;;;;;;;;;;;;;;;;;;5089249;28;19916;-70
2022/09/07 01:42:16;;;;;;;;;;;;;;;;;;5089146;28;19916;-71
2022/09/07 01:44:41;;;;;;;;;;;;;;;;;;5087589;28;19920;-70
2022/09/07 01:47:06;;;;;;;;;;;;;;;;;;5102380;28;19919;-69
2022/09/07 01:49:32;;;;;;;;;;;;;;;;;;5090136;28;19912;-70
2022/09/07 01:51:57;;;;;;;;;;;;;;;;;;5066746;28;19908;-70
2022/09/07 01:54:22;;;;;;;;;;;;;;;;;;5081488;28;19917;-69
2022/09/07 01:56:47;;;;;;;;;;;;;;;;;;5072352;28;19912;-70
2022/09/07 01:59:12;;;;;;;;;;;;;;;;;;5071827;28;19958;-70
2022/09/07 02:01:37;;;;;;;;;;;;;;;;;;5085579;28;19909;-69
2022/09/07 02:04:03;;;;;;;;;;;;;;;;;;5099935;28;19912;-69
2022/09/07 02:06:28;;;;;;;;;;;;;;;;;;5085376;28;19916;-70
2022/09/07 02:08:53;;;;;;;;;;;;;;;;;;5081391;28;19995;-70
2022/09/07 02:11:18;;;;;;;;;;;;;;;;;;5075177;28;20003;-70
2022/09/07 02:13:43;;;;;;;;;;;;;;;;;;5084784;28;20265;-70
2022/09/07 02:16:09;;;;;;;;;;;;;;;;;;5075983;28;19920;-70
2022/09/07 02:18:35;;;;;;;;;;;;;;;;;;5084801;28;19959;-70
2022/09/07 02:21:00;;;;;;;;;;;;;;;;;;5095550;28;19927;-70
2022/09/07 02:23:25;;;;;;;;;;;;;;;;;;5073600;28;19919;-69
2022/09/07 02:25:52;;;;;;;;;;;;;;;;;;5083145;28;19982;-70
2022/09/07 02:28:17;;;;;;;;;;;;;;;;;;5092262;28;19912;-70
2022/09/07 02:30:42;;;;;;;;;;;;;;;;;;5083411;28;19965;-70
2022/09/07 02:33:07;;;;;;;;;;;;;;;;;;5078559;28;19958;-70
2022/09/07 02:35:33;;;;;;;;;;;;;;;;;;5081148;28;19912;-70
2022/09/07 02:37:58;;;;;;;;;;;;;;;;;;5074619;28;19917;-70
2022/09/07 02:40:23;;;;;;;;;;;;;;;;;;5074274;28;19915;-68
2022/09/07 02:42:48;;;;;;;;;;;;;;;;;;5080174;28;19963;-71
2022/09/07 02:45:14;;;;;;;;;;;;;;;;;;5079940;28;19938;-69
2022/09/07 02:47:39;;;;;;;;;;;;;;;;;;5092875;28;19919;-69
2022/09/07 02:50:04;;;;;;;;;;;;;;;;;;5094795;28;19912;-68
2022/09/07 02:52:29;;;;;;;;;;;;;;;;;;5084606;28;20007;-69
2022/09/07 02:54:54;;;;;;;;;;;;;;;;;;5081192;28;20338;-69
2022/09/07 02:57:19;;;;;;;;;;;;;;;;;;5091229;28;19916;-70
2022/09/07 02:59:45;;;;;;;;;;;;;;;;;;5094740;28;19908;-69
2022/09/07 03:02:10;;;;;;;;;;;;;;;;;;5066138;28;19916;-69
2022/09/07 03:04:35;;;;;;;;;;;;;;;;;;5083989;28;20003;-69
2022/09/07 03:07:00;;;;;;;;;;;;;;;;;;5074163;28;19912;-69
2022/09/07 03:09:25;;;;;;;;;;;;;;;;;;5073751;28;19908;-69
2022/09/07 03:11:50;;;;;;;;;;;;;;;;;;5055908;28;19916;-69
2022/09/07 03:14:16;;;;;;;;;;;;;;;;;;5092297;28;19919;-69
2022/09/07 03:16:41;;;;;;;;;;;;;;;;;;5074794;28;19977;-69
2022/09/07 03:19:06;;;;;;;;;;;;;;;;;;5097178;28;19908;-70
2022/09/07 03:21:31;;;;;;;;;;;;;;;;;;5087892;28;20059;-70
2022/09/07 03:23:56;;;;;;;;;;;;;;;;;;5080600;28;19912;-69
2022/09/07 03:26:22;;;;;;;;;;;;;;;;;;5080653;28;19916;-67
2022/09/07 03:28:47;;;;;;;;;;;;;;;;;;5094226;28;19908;-70
2022/09/07 03:31:12;;;;;;;;;;;;;;;;;;5092795;28;19912;-69
2022/09/07 03:33:38;;;;;;;;;;;;;;;;;;5067589;28;19913;-70
2022/09/07 03:36:03;;;;;;;;;;;;;;;;;;5091940;28;19912;-70
2022/09/07 03:38:28;;;;;;;;;;;;;;;;;;5094027;28;20364;-70
2022/09/07 03:40:53;;;;;;;;;;;;;;;;;;5082745;28;20003;-68
2022/09/07 03:43:18;;;;;;;;;;;;;;;;;;5082084;28;20443;-70
2022/09/07 03:45:43;;;;;;;;;;;;;;;;;;5074701;28;19916;-69
2022/09/07 03:48:08;;;;;;;;;;;;;;;;;;5110067;28;19911;-69
2022/09/07 03:50:34;;;;;;;;;;;;;;;;;;5090459;28;19916;-70
2022/09/07 03:52:59;;;;;;;;;;;;;;;;;;5086645;28;19958;-69
2022/09/07 03:55:24;;;;;;;;;;;;;;;;;;5055608;28;19908;-69
2022/09/07 03:57:49;;;;;;;;;;;;;;;;;;5086174;28;20137;-69
2022/09/07 04:00:14;;;;;;;;;;;;;;;;;;5075529;28;19912;-69
2022/09/07 04:02:40;;;;;;;;;;;;;;;;;;5093014;28;19923;-70
2022/09/07 04:05:05;;;;;;;;;;;;;;;;;;5087937;28;19923;-69
2022/09/07 04:07:30;;;;;;;;;;;;;;;;;;5090891;28;20314;-70
2022/09/07 04:09:55;;;;;;;;;;;;;;;;;;5070672;28;19913;-68
2022/09/07 04:12:21;;;;;;;;;;;;;;;;;;5072745;28;19909;-70
2022/09/07 04:14:46;;;;;;;;;;;;;;;;;;5081151;28;19984;-70
2022/09/07 04:17:11;;;;;;;;;;;;;;;;;;5099773;28;19920;-70
2022/09/07 04:19:36;;;;;;;;;;;;;;;;;;5100339;28;19916;-70
2022/09/07 04:22:01;;;;;;;;;;;;;;;;;;5090622;28;20325;-69
2022/09/07 04:24:26;;;;;;;;;;;;;;;;;;5083109;28;19991;-70
2022/09/07 04:26:51;;;;;;;;;;;;;;;;;;5082395;28;19912;-68
2022/09/07 04:29:17;;;;;;;;;;;;;;;;;;5085765;28;19944;-70
2022/09/07 04:31:42;;;;;;;;;;;;;;;;;;5077392;28;19972;-70
2022/09/07 04:34:07;;;;;;;;;;;;;;;;;;5086090;28;19915;-70
2022/09/07 04:36:32;;;;;;;;;;;;;;;;;;5078166;28;19934;-70
2022/09/07 04:38:58;;;;;;;;;;;;;;;;;;5082572;28;20348;-71
2022/09/07 04:41:23;;;;;;;;;;;;;;;;;;5082591;28;19912;-71
2022/09/07 04:43:48;;;;;;;;;;;;;;;;;;5068850;28;20329;-73
2022/09/07 04:46:13;;;;;;;;;;;;;;;;;;5076572;28;19923;-72
2022/09/07 04:48:39;;;;;;;;;;;;;;;;;;5079364;28;19998;-72
2022/09/07 04:51:04;;;;;;;;;;;;;;;;;;5085340;28;19965;-71
2022/09/07 04:53:29;;;;;;;;;;;;;;;;;;5074450;28;19918;-73
2022/09/07 04:55:54;;;;;;;;;;;;;;;;;;5077878;28;20318;-72
2022/09/07 04:58:20;;;;;;;;;;;;;;;;;;5072702;28;19904;-71
2022/09/07 05:00:45;;;;;;;;;;;;;;;;;;5062809;28;19918;-72
2022/09/07 05:03:10;;;;;;;;;;;;;;;;;;5079144;28;19926;-73
2022/09/07 05:05:36;;;;;;;;;;;;;;;;;;5078579;28;19916;-72
2022/09/07 05:08:01;;;;;;;;;;;;;;;;;;5076461;28;20041;-68
2022/09/07 05:10:26;;;;;;;;;;;;;;;;;;5085113;28;20003;-73
2022/09/07 05:12:52;;;;;;;;;;;;;;;;;;5086583;28;19958;-72
2022/09/07 05:15:17;;;;;;;;;;;;;;;;;;5064367;28;19920;-72
2022/09/07 05:17:42;;;;;;;;;;;;;;;;;;5080905;28;20360;-71
2022/09/07 05:20:07;;;;;;;;;;;;;;;;;;5080889;28;20426;-73
2022/09/07 05:22:34;;;;;;;;;;;;;;;;;;5087704;28;20000;-71
2022/09/07 05:24:59;;;;;;;;;;;;;;;;;;5077586;28;20002;-72
2022/09/07 05:27:24;;;;;;;;;;;;;;;;;;5053550;28;20311;-71
2022/09/07 05:29:49;;;;;;;;;;;;;;;;;;5071797;28;19963;-72
2022/09/07 05:32:15;;;;;;;;;;;;;;;;;;5091691;28;19957;-72
2022/09/07 05:34:40;;;;;;;;;;;;;;;;;;5092378;28;20281;-71
2022/09/07 05:37:06;;;;;;;;;;;;;;;;;;5073871;28;20391;-72
2022/09/07 05:39:31;;;;;;;;;;;;;;;;;;5086090;28;19923;-69
2022/09/07 05:41:56;;;;;;;;;;;;;;;;;;5071135;28;20387;-72
2022/09/07 05:44:22;;;;;;;;;;;;;;;;;;5087334;28;19912;-71
2022/09/07 05:46:47;;;;;;;;;;;;;;;;;;5075139;28;19920;-72
2022/09/07 05:49:12;;;;;;;;;;;;;;;;;;5073959;28;20323;-70
2022/09/07 05:51:37;;;;;;;;;;;;;;;;;;5059697;28;20002;-70
2022/09/07 05:54:02;;;;;;;;;;;;;;;;;;5064164;28;19909;-72
2022/09/07 05:56:27;;;;;;;;;;;;;;;;;;5081997;28;19966;-71
2022/09/07 05:58:53;;;;;;;;;;;;;;;;;;5078180;28;19916;-72
2022/09/07 06:01:18;;;;;;;;;;;;;;;;;;5062836;28;19913;-72
2022/09/07 06:03:43;;;;;;;;;;;;;;;;;;5063159;28;19912;-72
2022/09/07 06:06:08;;;;;;;;;;;;;;;;;;5069197;28;20006;-72
2022/09/07 06:08:34;;;;;;;;;;;;;;;;;;5094742;28;19952;-72
2022/09/07 06:10:59;;;;;;;;;;;;;;;;;;5061893;28;19912;-70
2022/09/07 06:13:24;;;;;;;;;;;;;;;;;;5079195;28;19912;-72
2022/09/07 06:15:49;;;;;;;;;;;;;;;;;;5067980;28;19924;-73
2022/09/07 06:18:14;;;;;;;;;;;;;;;;;;5056963;28;19913;-72
2022/09/07 06:20:40;;;;;;;;;;;;;;;;;;5062645;28;19968;-72
2022/09/07 06:23:06;;;;;;;;;;;;;;;;;;5055271;28;20364;-72
2022/09/07 06:25:31;;;;;;;;;;;;;;;;;;5055118;28;19956;-71
2022/09/07 06:27:56;;;;;;;;;;;;;;;;;;5061373;28;20045;-71
2022/09/07 06:30:21;;;;;;;;;;;;;;;;;;5044319;28;19917;-69
2022/09/07 06:32:46;;;;;;;;;;;;;;;;;;5066861;28;19920;-72
2022/09/07 06:35:12;;;;;;;;;;;;;;;;;;5055123;28;19959;-70
2022/09/07 06:37:37;;;;;;;;;;;;;;;;;;5037436;28;19913;-71
2022/09/07 06:40:02;;;;;;;;;;;;;;;;;;5044312;28;20434;-72
2022/09/07 06:42:27;;;;;;;;;;;;;;;;;;5054395;28;20352;-73
2022/09/07 06:44:52;;;;;;;;;;;;;;;;;;5053562;28;19924;-71
2022/09/07 06:47:17;;;;;;;;;;;;;;;;;;5047238;28;19948;-72
2022/09/07 06:49:43;;;;;;;;;;;;;;;;;;5066719;28;19939;-72
2022/09/07 06:52:08;;;;;;;;;;;;;;;;;;5068394;28;19913;-72
2022/09/07 06:54:33;;;;;;;;;;;;;;;;;;5046027;28;19908;-71
2022/09/07 06:56:58;;;;;;;;;;;;;;;;;;5054035;28;19909;-72
2022/09/07 06:59:23;;;;;;;;;;;;;;;;;;5053933;28;20008;-72
2022/09/07 07:01:48;;;;;;;;;;;;;;;;;;5037038;28;19912;-72
2022/09/07 07:04:14;;;;;;;;;;;;;;;;;;5074007;28;19908;-72
2022/09/07 07:06:39;;;;;;;;;;;;;;;;;;5069269;28;19989;-72
2022/09/07 07:09:04;;;;;;;;;;;;;;;;;;5076797;28;19919;-72
2022/09/07 07:11:32;;;;;;;;;;;;;;;;;;5068658;28;20297;-72
2022/09/07 07:13:58;;;;;;;;;;;;;;;;;;5067254;28;19909;-71
2022/09/07 07:16:23;;;;;;;;;;;;;;;;;;5059982;28;19925;-69
2022/09/07 07:18:51;;;;;;;;;;;;;;;;;;5070924;28;20062;-72
2022/09/07 07:21:16;;;;;;;;;;;;;;;;;;5070429;28;19997;-72
2022/09/07 07:23:41;;;;;;;;;;;;;;;;;;5069961;28;19967;-72
2022/09/07 07:26:06;;;;;;;;;;;;;;;;;;5054813;28;20262;-72
2022/09/07 07:28:31;;;;;;;;;;;;;;;;;;5053281;28;20339;-72
2022/09/07 07:30:56;;;;;;;;;;;;;;;;;;5046817;28;19912;-72
2022/09/07 07:33:22;;;;;;;;;;;;;;;;;;5060224;28;20650;-72
2022/09/07 07:35:47;;;;;;;;;;;;;;;;;;5053382;28;20365;-72
2022/09/07 07:38:12;;;;;;;;;;;;;;;;;;5054944;28;20006;-69
2022/09/07 07:40:37;;;;;;;;;;;;;;;;;;5053214;28;20361;-69
2022/09/07 07:43:03;;;;;;;;;;;;;;;;;;5044577;28;19912;-70
2022/09/07 07:45:28;;;;;;;;;;;;;;;;;;5048671;28;19987;-69
2022/09/07 07:47:53;;;;;;;;;;;;;;;;;;5059621;28;19978;-68
2022/09/07 07:50:18;;;;;;;;;;;;;;;;;;5063786;28;19909;-68
2022/09/07 07:52:43;;;;;;;;;;;;;;;;;;5069041;28;20288;-68
2022/09/07 07:55:09;;;;;;;;;;;;;;;;;;5041648;28;19967;-70
2022/09/07 07:57:34;;;;;;;;;;;;;;;;;;5058847;28;19913;-69
2022/09/07 07:59:59;;;;;;;;;;;;;;;;;;5064468;28;19917;-69
2022/09/07 08:02:24;;;;;;;;;;;;;;;;;;5055250;28;19912;-69
2022/09/07 08:04:50;;;;;;;;;;;;;;;;;;5043163;28;20280;-69
2022/09/07 08:07:15;;;;;;;;;;;;;;;;;;5034602;28;19951;-69
2022/09/07 08:09:40;;;;;;;;;;;;;;;;;;5060049;28;19945;-69
2022/09/07 08:12:05;;;;;;;;;;;;;;;;;;5066954;28;19912;-69
2022/09/07 08:14:30;;;;;;;;;;;;;;;;;;5048266;28;19917;-68
2022/09/07 08:16:55;;;;;;;;;;;;;;;;;;5046802;28;19928;-68
2022/09/07 08:19:21;;;;;;;;;;;;;;;;;;5067622;28;20038;-69
2022/09/07 08:21:46;;;;;;;;;;;;;;;;;;5054376;28;19913;-69
2022/09/07 08:24:11;;;;;;;;;;;;;;;;;;5034802;28;20394;-70
2022/09/07 08:26:36;;;;;;;;;;;;;;;;;;5053445;28;20319;-69
2022/09/07 08:29:01;;;;;;;;;;;;;;;;;;5071343;28;19923;-69
2022/09/07 08:31:27;;;;;;;;;;;;;;;;;;5048240;28;19917;-69
2022/09/07 08:33:52;;;;;;;;;;;;;;;;;;5034604;28;19913;-70
2022/09/07 08:36:17;;;;;;;;;;;;;;;;;;5033609;28;19954;-69
2022/09/07 08:38:42;;;;;;;;;;;;;;;;;;5071825;28;19974;-69
2022/09/07 08:41:07;;;;;;;;;;;;;;;;;;5061342;28;19912;-69
2022/09/07 08:43:32;;;;;;;;;;;;;;;;;;5061399;28;20254;-69
2022/09/07 08:45:59;;;;;;;;;;;;;;;;;;5057217;28;19923;-67
2022/09/07 08:48:24;;;;;;;;;;;;;;;;;;5057270;28;19982;-66
2022/09/07 08:50:50;;;;;;;;;;;;;;;;;;5061554;28;19909;-66
2022/09/07 08:53:15;;;;;;;;;;;;;;;;;;5059726;28;20003;-71
2022/09/07 08:55:40;;;;;;;;;;;;;;;;;;5036184;28;19924;-71
2022/09/07 08:58:06;;;;;;;;;;;;;;;;;;5050123;28;19919;-70
2022/09/07 09:00:31;;;;;;;;;;;;;;;;;;5060580;28;19939;-71
2022/09/07 09:02:57;;;;;;;;;;;;;;;;;;5044987;28;20373;-71
2022/09/07 09:05:22;;;;;;;;;;;;;;;;;;5065890;28;19917;-71
2022/09/07 09:07:47;;;;;;;;;;;;;;;;;;5066166;28;19912;-71
2022/09/07 09:10:12;;;;;;;;;;;;;;;;;;5068091;28;20322;-70
2022/09/07 09:12:39;;;;;;;;;;;;;;;;;;5065999;28;20323;-71
2022/09/07 09:15:04;;;;;;;;;;;;;;;;;;5057015;28;19925;-70
2022/09/07 09:17:29;;;;;;;;;;;;;;;;;;5063334;28;20288;-71
2022/09/07 09:19:54;;;;;;;;;;;;;;;;;;5059045;28;19913;-71
2022/09/07 09:22:19;;;;;;;;;;;;;;;;;;5047077;28;19999;-71
2022/09/07 09:24:44;;;;;;;;;;;;;;;;;;5038045;28;20285;-70
2022/09/07 09:27:10;;;;;;;;;;;;;;;;;;5037676;28;19916;-70
2022/09/07 09:29:35;;;;;;;;;;;;;;;;;;5062989;28;19912;-70
2022/09/07 09:32:00;;;;;;;;;;;;;;;;;;5056034;28;19909;-70
2022/09/07 09:34:25;;;;;;;;;;;;;;;;;;5056361;28;19912;-70
2022/09/07 09:36:50;;;;;;;;;;;;;;;;;;5068070;28;20377;-70
2022/09/07 09:39:15;;;;;;;;;;;;;;;;;;5066889;28;20005;-71
2022/09/07 09:41:40;;;;;;;;;;;;;;;;;;5073612;28;19942;-71
2022/09/07 09:44:05;;;;;;;;;;;;;;;;;;5072328;28;19912;-71
2022/09/07 09:46:31;;;;;;;;;;;;;;;;;;5043164;28;20038;-71
2022/09/07 09:48:56;;;;;;;;;;;;;;;;;;5049335;28;19916;-71
2022/09/07 09:51:21;;;;;;;;;;;;;;;;;;5048407;28;19913;-71
2022/09/07 09:53:46;;;;;;;;;;;;;;;;;;5045101;28;19912;-70
2022/09/07 09:56:11;;;;;;;;;;;;;;;;;;5058195;28;19940;-71
2022/09/07 09:58:36;;;;;;;;;;;;;;;;;;5039353;28;19912;-70
2022/09/07 10:01:02;;;;;;;;;;;;;;;;;;5055466;28;19916;-71
2022/09/07 10:03:27;;;;;;;;;;;;;;;;;;5037368;28;20377;-70
2022/09/07 10:05:53;;;;;;;;;;;;;;;;;;5039615;28;20384;-71
2022/09/07 10:08:18;;;;;;;;;;;;;;;;;;5058419;28;19917;-71
2022/09/07 10:10:43;;;;;;;;;;;;;;;;;;5062602;28;19920;-71
2022/09/07 10:13:08;;;;;;;;;;;;;;;;;;5055606;28;19912;-71
2022/09/07 10:15:35;;;;;;;;;;;;;;;;;;5051991;28;20002;-70
2022/09/07 10:18:00;;;;;;;;;;;;;;;;;;5065600;28;19920;-70
2022/09/07 10:20:25;;;;;;;;;;;;;;;;;;5063624;28;20288;-70
2022/09/07 10:22:50;;;;;;;;;;;;;;;;;;5074466;28;20279;-69
2022/09/07 10:25:15;;;;;;;;;;;;;;;;;;5059381;28;20430;-70
2022/09/07 10:27:41;;;;;;;;;;;;;;;;;;5053955;28;19917;-69
2022/09/07 10:30:06;;;;;;;;;;;;;;;;;;5052326;28;19919;-70
2022/09/07 10:32:31;;;;;;;;;;;;;;;;;;5067383;28;19948;-70
2022/09/07 10:34:56;;;;;;;;;;;;;;;;;;5056227;28;19982;-70
2022/09/07 10:37:21;;;;;;;;;;;;;;;;;;5069941;28;19912;-71
2022/09/07 10:39:46;;;;;;;;;;;;;;;;;;5068634;28;20462;-70
2022/09/07 10:42:11;;;;;;;;;;;;;;;;;;5065352;28;20003;-69
2022/09/07 10:44:37;;;;;;;;;;;;;;;;;;5053636;28;19912;-67
2022/09/07 10:47:02;;;;;;;;;;;;;;;;;;5059317;28;20003;-72
2022/09/07 10:49:27;;;;;;;;;;;;;;;;;;5055613;28;19920;-70
2022/09/07 10:51:52;;;;;;;;;;;;;;;;;;5057404;28;20160;-68
2022/09/07 10:54:17;;;;;;;;;;;;;;;;;;5054040;28;19909;-69
2022/09/07 10:56:42;;;;;;;;;;;;;;;;;;5074227;28;19969;-67
2022/09/07 10:59:08;;;;;;;;;;;;;;;;;;5065914;28;19920;-68
2022/09/07 11:01:33;;;;;;;;;;;;;;;;;;5057532;28;20484;-72
2022/09/07 11:03:58;;;;;;;;;;;;;;;;;;5056669;28;19951;-68
2022/09/07 11:06:23;;;;;;;;;;;;;;;;;;5061814;28;20186;-72
2022/09/07 11:08:48;;;;;;;;;;;;;;;;;;5064690;28;20427;-69
2022/09/07 11:11:13;;;;;;;;;;;;;;;;;;5055420;28;19939;-69
2022/09/07 11:13:39;;;;;;;;;;;;;;;;;;5071928;28;19915;-69
2022/09/07 11:16:04;;;;;;;;;;;;;;;;;;5069930;28;20008;-69
2022/09/07 11:18:29;;;;;;;;;;;;;;;;;;5073423;28;19912;-68
2022/09/07 11:20:54;;;;;;;;;;;;;;;;;;5071719;28;19927;-69
2022/09/07 11:23:19;;;;;;;;;;;;;;;;;;5065349;28;19912;-68
2022/09/07 11:25:44;;;;;;;;;;;;;;;;;;5085794;28;19969;-68
2022/09/07 11:28:10;;;;;;;;;;;;;;;;;;5089385;28;19961;-68
2022/09/07 11:30:35;;;;;;;;;;;;;;;;;;5084212;28;19919;-68
2022/09/07 11:33:00;;;;;;;;;;;;;;;;;;5083416;28;19918;-68
2022/09/07 11:35:25;;;;;;;;;;;;;;;;;;5083685;28;19912;-68
2022/09/07 11:37:54;;;;;;;;;;;;;;;;;;5088188;28;19924;-68
2022/09/07 11:40:22;;;;;;;;;;;;;;;;;;5084841;28;19908;-68
2022/09/07 11:42:47;;;;;;;;;;;;;;;;;;5076069;28;19969;-67
2022/09/07 11:45:12;;;;;;;;;;;;;;;;;;5054064;28;19928;-67
2022/09/07 11:47:38;;;;;;;;;;;;;;;;;;5075445;28;19940;-67
2022/09/07 11:50:03;;;;;;;;;;;;;;;;;;5085410;28;19912;-69
2022/09/07 11:52:28;;;;;;;;;;;;;;;;;;5088966;28;19912;-69
2022/09/07 11:54:53;;;;;;;;;;;;;;;;;;5084285;28;19967;-68
2022/09/07 11:57:18;;;;;;;;;;;;;;;;;;5072857;28;19915;-67
2022/09/07 11:59:43;;;;;;;;;;;;;;;;;;5054831;28;19998;-68
2022/09/07 12:02:08;;;;;;;;;;;;;;;;;;5058061;28;20368;-67
2022/09/07 12:04:34;;;;;;;;;;;;;;;;;;5081745;28;19919;-68
2022/09/07 12:06:59;;;;;;;;;;;;;;;;;;5088718;28;19923;-68
2022/09/07 12:09:24;;;;;;;;;;;;;;;;;;5092777;28;19931;-68
2022/09/07 12:11:49;;;;;;;;;;;;;;;;;;5065575;28;20009;-67
2022/09/07 12:14:14;;;;;;;;;;;;;;;;;;5088799;28;19965;-69
2022/09/07 12:16:40;;;;;;;;;;;;;;;;;;5057528;28;19927;-68
2022/09/07 12:19:05;;;;;;;;;;;;;;;;;;5070045;28;20323;-71
2022/09/07 12:21:30;;;;;;;;;;;;;;;;;;5075014;28;19916;-71
2022/09/07 12:23:55;;;;;;;;;;;;;;;;;;5055481;28;19920;-68
2022/09/07 12:26:20;;;;;;;;;;;;;;;;;;5092468;28;19916;-70
2022/09/07 12:28:45;;;;;;;;;;;;;;;;;;5088353;28;20148;-70
2022/09/07 12:31:11;;;;;;;;;;;;;;;;;;5080211;28;19913;-71
2022/09/07 12:33:36;;;;;;;;;;;;;;;;;;5064816;28;19959;-71
2022/09/07 12:36:01;;;;;;;;;;;;;;;;;;5055844;28;20355;-71
2022/09/07 12:38:26;;;;;;;;;;;;;;;;;;5054421;28;19912;-66
2022/09/07 12:40:51;;;;;;;;;;;;;;;;;;5083596;28;20003;-69
2022/09/07 12:43:17;;;;;;;;;;;;;;;;;;5062815;28;20304;-68
2022/09/07 12:45:42;;;;;;;;;;;;;;;;;;5077487;28;20292;-68
2022/09/07 12:48:07;;;;;;;;;;;;;;;;;;5064980;28;19957;-65
2022/09/07 12:50:32;;;;;;;;;;;;;;;;;;5079325;28;19913;-69
2022/09/07 12:52:57;;;;;;;;;;;;;;;;;;5082233;28;19916;-71
2022/09/07 12:55:22;;;;;;;;;;;;;;;;;;5073014;28;19922;-72
2022/09/07 12:57:47;;;;;;;;;;;;;;;;;;5069377;28;19916;-70
2022/09/07 13:00:13;;;;;;;;;;;;;;;;;;5067181;28;19920;-75
2022/09/07 13:02:38;;;;;;;;;;;;;;;;;;5063136;28;19935;-72
2022/09/07 13:05:03;;;;;;;;;;;;;;;;;;5054551;28;19917;-71
2022/09/07 13:07:28;;;;;;;;;;;;;;;;;;5053343;28;19916;-74
2022/09/07 13:09:53;;;;;;;;;;;;;;;;;;5059359;28;19955;-74
2022/09/07 13:12:18;;;;;;;;;;;;;;;;;;5061893;28;19923;-71
2022/09/07 13:14:43;;;;;;;;;;;;;;;;;;5073063;28;19958;-74
2022/09/07 13:17:08;;;;;;;;;;;;;;;;;;5033623;28;19919;-70
2022/09/07 13:19:34;;;;;;;;;;;;;;;;;;5062104;28;19956;-62
2022/09/07 13:21:59;;;;;;;;;;;;;;;;;;5050748;28;19999;-70
2022/09/07 13:24:25;;;;;;;;;;;;;;;;;;5038193;28;19931;-68
2022/09/07 13:26:50;;;;;;;;;;;;;;;;;;5051095;28;19925;-67
2022/09/07 13:29:15;;;;;;;;;;;;;;;;;;5033915;28;20274;-67
2022/09/07 13:31:40;;;;;;;;;;;;;;;;;;5043234;28;19912;-68
2022/09/07 13:34:05;;;;;;;;;;;;;;;;;;5038285;28;19996;-68
2022/09/07 13:36:31;;;;;;;;;;;;;;;;;;5056871;28;19912;-67
2022/09/07 13:38:56;;;;;;;;;;;;;;;;;;5051479;28;19909;-67
2022/09/07 13:41:21;;;;;;;;;;;;;;;;;;5055085;28;19938;-67
2022/09/07 13:43:47;;;;;;;;;;;;;;;;;;5066890;28;19912;-67
2022/09/07 13:46:12;;;;;;;;;;;;;;;;;;5036984;28;19927;-71
2022/09/07 13:48:37;;;;;;;;;;;;;;;;;;5052007;28;19916;-67
2022/09/07 13:51:03;;;;;;;;;;;;;;;;;;5050846;28;19913;-67
2022/09/07 13:53:28;;;;;;;;;;;;;;;;;;5054161;28;19913;-67
2022/09/07 13:55:53;;;;;;;;;;;;;;;;;;5066133;28;19983;-67
2022/09/07 13:58:18;;;;;;;;;;;;;;;;;;5060925;28;20440;-67
2022/09/07 14:00:43;;;;;;;;;;;;;;;;;;5065121;28;19913;-66
2022/09/07 14:03:08;;;;;;;;;;;;;;;;;;5070024;28;20280;-67
2022/09/07 14:05:35;;;;;;;;;;;;;;;;;;5053106;28;20399;-67
2022/09/07 14:08:00;;;;;;;;;;;;;;;;;;5063303;28;19935;-67
2022/09/07 14:10:25;;;;;;;;;;;;;;;;;;5057282;28;19924;-67
2022/09/07 14:12:50;;;;;;;;;;;;;;;;;;5073359;28;19924;-67
2022/09/07 14:15:15;;;;;;;;;;;;;;;;;;5071998;28;19924;-67
2022/09/07 14:17:40;;;;;;;;;;;;;;;;;;5084345;28;19913;-68
2022/09/07 14:20:06;;;;;;;;;;;;;;;;;;5073644;28;19919;-67
2022/09/07 14:22:31;;;;;;;;;;;;;;;;;;5056909;28;19974;-67
2022/09/07 14:24:56;;;;;;;;;;;;;;;;;;5075342;28;20033;-67
2022/09/07 14:27:21;;;;;;;;;;;;;;;;;;5076987;28;19916;-67
2022/09/07 14:29:46;;;;;;;;;;;;;;;;;;5080001;28;19913;-68
2022/09/07 14:32:11;;;;;;;;;;;;;;;;;;5074847;28;20005;-67
2022/09/07 14:34:37;;;;;;;;;;;;;;;;;;5095372;28;20390;-67
2022/09/07 14:37:02;;;;;;;;;;;;;;;;;;5094732;28;20287;-68
2022/09/07 14:39:28;;;;;;;;;;;;;;;;;;5073084;28;20042;-67
2022/09/07 14:41:53;;;;;;;;;;;;;;;;;;5082861;28;19916;-65
2022/09/07 14:44:18;;;;;;;;;;;;;;;;;;5075261;28;20276;-66
2022/09/07 14:46:43;;;;;;;;;;;;;;;;;;5057866;28;20411;-65
2022/09/07 14:49:09;;;;;;;;;;;;;;;;;;5062981;28;19921;-67
2022/09/07 14:51:34;;;;;;;;;;;;;;;;;;5094502;28;19908;-66
2022/09/07 14:53:59;;;;;;;;;;;;;;;;;;5059908;28;19924;-66
2022/09/07 14:56:24;;;;;;;;;;;;;;;;;;5065794;28;19919;-66
2022/09/07 14:58:49;;;;;;;;;;;;;;;;;;5078673;28;19996;-65
2022/09/07 15:01:14;;;;;;;;;;;;;;;;;;5080686;28;19948;-66
2022/09/07 15:03:39;;;;;;;;;;;;;;;;;;5084427;28;19912;-66
2022/09/07 15:06:05;;;;;;;;;;;;;;;;;;5081516;28;19955;-65
2022/09/07 15:08:30;;;;;;;;;;;;;;;;;;5062997;28;20368;-66
2022/09/07 15:10:55;;;;;;;;;;;;;;;;;;5067323;28;20015;-66
2022/09/07 15:13:20;;;;;;;;;;;;;;;;;;5076309;28;19919;-67
2022/09/07 15:15:45;;;;;;;;;;;;;;;;;;5052341;28;19920;-67
2022/09/07 15:18:10;;;;;;;;;;;;;;;;;;5060212;28;19920;-68
2022/09/07 15:20:35;;;;;;;;;;;;;;;;;;5058091;28;19919;-67
2022/09/07 15:23:01;;;;;;;;;;;;;;;;;;5060925;28;19922;-67
2022/09/07 15:25:26;;;;;;;;;;;;;;;;;;5082732;28;19916;-67
2022/09/07 15:27:51;;;;;;;;;;;;;;;;;;5086738;28;19916;-67
2022/09/07 15:30:16;;;;;;;;;;;;;;;;;;5078807;28;19996;-68
2022/09/07 15:32:41;;;;;;;;;;;;;;;;;;5079378;28;20368;-67
2022/09/07 15:35:06;;;;;;;;;;;;;;;;;;5072806;28;20388;-67
2022/09/07 15:37:31;;;;;;;;;;;;;;;;;;5076294;28;19920;-67
2022/09/07 15:39:57;;;;;;;;;;;;;;;;;;5077933;28;19912;-68
2022/09/07 15:42:22;;;;;;;;;;;;;;;;;;5074899;28;19919;-66
2022/09/07 15:44:47;;;;;;;;;;;;;;;;;;5071253;28;20325;-65
2022/09/07 15:47:13;;;;;;;;;;;;;;;;;;5055525;28;19916;-66
2022/09/07 15:49:38;;;;;;;;;;;;;;;;;;5064458;28;19943;-65
2022/09/07 15:52:03;;;;;;;;;;;;;;;;;;5088528;28;20183;-65
2022/09/07 15:54:28;;;;;;;;;;;;;;;;;;5084384;28;20010;-65
2022/09/07 15:56:53;;;;;;;;;;;;;;;;;;5059445;28;19957;-65
2022/09/07 15:59:18;;;;;;;;;;;;;;;;;;5073334;28;19919;-66
2022/09/07 16:01:44;;;;;;;;;;;;;;;;;;5078631;28;19920;-66
2022/09/07 16:04:09;;;;;;;;;;;;;;;;;;5072225;28;20053;-66
2022/09/07 16:06:34;;;;;;;;;;;;;;;;;;5080693;28;19923;-66
2022/09/07 16:08:59;;;;;;;;;;;;;;;;;;5086604;28;19912;-65
2022/09/07 16:11:24;;;;;;;;;;;;;;;;;;5076094;28;19985;-66
2022/09/07 16:13:49;;;;;;;;;;;;;;;;;;5082031;28;19920;-66
2022/09/07 16:16:14;;;;;;;;;;;;;;;;;;5059762;28;19928;-65
2022/09/07 16:18:39;;;;;;;;;;;;;;;;;;5054064;28;20011;-64
2022/09/07 16:21:05;;;;;;;;;;;;;;;;;;5049450;28;19924;-64
2022/09/07 16:23:30;;;;;;;;;;;;;;;;;;5041178;28;19913;-66
2022/09/07 16:25:55;;;;;;;;;;;;;;;;;;5069430;28;19942;-64
2022/09/07 16:28:21;;;;;;;;;;;;;;;;;;5056510;28;19920;-64
2022/09/07 16:30:46;;;;;;;;;;;;;;;;;;5052781;28;19913;-64